Time;durP1;ratioP1;P1;durP2;ratioP2;P2;SDS_P1;SDS_P2;PMS_P1;PMS_P2;Temp;Humidity;BMP_temperature;BMP_pressure;BME280_temperature;BME280_humidity;BME280_pressure;Samples;Min_cycle;Max_cycle;Signal;HPM_P1;HPM_P2
2022/03/03 00:00:13;;;;;;;54.47;29.95;;;5.10;67.20;;;;;;5033451;28;20056;-63
2022/03/03 00:02:39;;;;;;;56.08;30.55;;;5.10;67.30;;;;;;5011816;28;993080;-64
2022/03/03 00:05:05;;;;;;;60.30;32.72;;;5.10;67.40;;;;;;5052814;28;20033;-63
2022/03/03 00:07:30;;;;;;;54.97;29.40;;;5.10;67.70;;;;;;5041988;28;20029;-64
2022/03/03 00:09:56;;;;;;;60.30;31.92;;;5.10;67.80;;;;;;5032736;28;20029;-64
2022/03/03 00:12:22;;;;;;;66.07;32.33;;;5.10;68.00;;;;;;5045948;28;20025;-63
2022/03/03 00:14:47;;;;;;;60.55;32.13;;;5.10;68.20;;;;;;5051485;28;20033;-64
2022/03/03 00:17:13;;;;;;;64.10;33.47;;;5.10;68.20;;;;;;5051138;28;20029;-63
2022/03/03 00:19:38;;;;;;;61.03;32.05;;;5.00;68.10;;;;;;5052522;28;20055;-63
2022/03/03 00:22:04;;;;;;;59.28;32.85;;;5.10;68.30;;;;;;5050981;28;20055;-64
2022/03/03 00:24:30;;;;;;;56.75;31.23;;;5.10;68.50;;;;;;5052672;28;20009;-63
2022/03/03 00:26:55;;;;;;;55.70;31.35;;;5.10;68.50;;;;;;5050281;28;20448;-63
2022/03/03 00:29:21;;;;;;;57.58;31.10;;;5.10;68.60;;;;;;5050832;28;20028;-63
2022/03/03 00:31:46;;;;;;;58.33;32.00;;;5.20;68.50;;;;;;5049444;28;20041;-63
2022/03/03 00:34:12;;;;;;;64.78;33.88;;;5.20;68.40;;;;;;5051764;28;20116;-63
2022/03/03 00:36:37;;;;;;;63.15;34.10;;;5.20;68.50;;;;;;5048757;28;20041;-63
2022/03/03 00:39:04;;;;;;;61.83;33.78;;;5.20;68.70;;;;;;5031734;28;20028;-63
2022/03/03 00:41:29;;;;;;;61.63;33.70;;;5.20;68.70;;;;;;5032584;28;20045;-63
2022/03/03 00:43:55;;;;;;;65.55;34.20;;;5.20;68.80;;;;;;5032306;28;20113;-63
2022/03/03 00:46:21;;;;;;;58.55;32.92;;;5.20;69.00;;;;;;5050687;28;20060;-63
2022/03/03 00:48:47;;;;;;;62.50;33.28;;;5.20;69.10;;;;;;5049795;28;20064;-64
2022/03/03 00:51:12;;;;;;;65.00;34.22;;;5.10;69.20;;;;;;5050351;28;20036;-64
2022/03/03 00:53:38;;;;;;;62.17;35.45;;;5.00;69.30;;;;;;5050246;28;20029;-64
2022/03/03 00:56:04;;;;;;;59.03;32.70;;;5.00;70.10;;;;;;5051656;28;20104;-64
2022/03/03 00:58:29;;;;;;;60.60;34.85;;;5.00;69.70;;;;;;5049502;28;20032;-63
2022/03/03 01:00:55;;;;;;;64.45;35.40;;;5.00;69.90;;;;;;5033492;28;20458;-64
2022/03/03 01:03:21;;;;;;;60.65;34.72;;;4.90;70.10;;;;;;5049092;28;20052;-64
2022/03/03 01:05:46;;;;;;;57.83;34.35;;;5.00;70.30;;;;;;5030164;28;20024;-63
2022/03/03 01:08:12;;;;;;;61.85;32.45;;;4.90;70.30;;;;;;5046463;28;20040;-63
2022/03/03 01:10:39;;;;;;;55.13;30.38;;;4.90;70.50;;;;;;5051277;28;20083;-63
2022/03/03 01:13:04;;;;;;;54.03;32.63;;;5.00;70.50;;;;;;5024481;28;20120;-63
2022/03/03 01:15:30;;;;;;;57.25;32.33;;;5.00;70.60;;;;;;5051237;28;20179;-63
2022/03/03 01:17:55;;;;;;;58.72;33.33;;;5.00;70.80;;;;;;5041840;28;20040;-63
2022/03/03 01:20:21;;;;;;;48.45;30.13;;;5.00;70.90;;;;;;5050479;28;20063;-63
2022/03/03 01:22:46;;;;;;;55.15;32.58;;;5.10;71.10;;;;;;5049524;28;20081;-63
2022/03/03 01:25:12;;;;;;;61.50;31.55;;;5.10;71.20;;;;;;5051339;28;20036;-63
2022/03/03 01:27:38;;;;;;;51.13;31.33;;;5.10;71.80;;;;;;5049979;28;20036;-63
2022/03/03 01:30:05;;;;;;;54.42;31.42;;;5.10;71.40;;;;;;5050902;28;20050;-64
2022/03/03 01:32:30;;;;;;;50.72;29.15;;;5.10;71.70;;;;;;5049906;28;20060;-64
2022/03/03 01:34:56;;;;;;;52.22;29.52;;;5.10;71.80;;;;;;5051221;28;20071;-63
2022/03/03 01:37:22;;;;;;;51.95;28.67;;;5.10;71.90;;;;;;5042132;28;20517;-64
2022/03/03 01:39:47;;;;;;;55.28;29.63;;;5.10;72.00;;;;;;5046871;28;20066;-63
2022/03/03 01:42:15;;;;;;;50.20;28.23;;;5.00;72.00;;;;;;5049252;28;20443;-63
2022/03/03 01:44:44;;;;;;;50.60;29.48;;;5.00;72.20;;;;;;5050862;28;20071;-64
2022/03/03 01:47:22;;;;;;;46.28;26.48;;;5.00;72.30;;;;;;5048759;28;20021;-64
2022/03/03 01:49:49;;;;;;;45.40;25.70;;;5.00;72.20;;;;;;5049854;28;20515;-64
2022/03/03 01:52:14;;;;;;;47.38;27.30;;;5.00;72.20;;;;;;5042945;28;20493;-64
2022/03/03 01:54:41;;;;;;;51.92;26.73;;;5.00;72.10;;;;;;5041933;28;20025;-63
2022/03/03 01:57:07;;;;;;;47.67;26.33;;;5.00;72.10;;;;;;5049021;28;20087;-63
2022/03/03 01:59:33;;;;;;;49.55;25.58;;;4.90;72.00;;;;;;5043640;28;20032;-63
2022/03/03 02:02:00;;;;;;;46.72;28.30;;;5.00;72.00;;;;;;5035440;28;20049;-63
2022/03/03 02:04:25;;;;;;;48.15;28.15;;;5.00;72.10;;;;;;5050402;28;20064;-64
2022/03/03 02:06:51;;;;;;;43.60;26.58;;;4.90;72.10;;;;;;5035255;28;20527;-63
2022/03/03 02:09:17;;;;;;;46.03;26.65;;;4.90;72.10;;;;;;5044096;28;20025;-63
2022/03/03 02:11:45;;;;;;;44.83;27.48;;;4.90;72.10;;;;;;5049156;28;20056;-63
2022/03/03 02:14:10;;;;;;;48.15;27.02;;;4.90;72.30;;;;;;5044011;28;20025;-63
2022/03/03 02:16:36;;;;;;;43.88;25.58;;;4.90;72.30;;;;;;5049478;28;20027;-63
2022/03/03 02:19:01;;;;;;;49.20;27.88;;;4.90;72.20;;;;;;5050649;28;20067;-63
2022/03/03 02:21:27;;;;;;;43.53;25.30;;;4.90;72.20;;;;;;5042256;28;20040;-64
2022/03/03 02:23:52;;;;;;;47.70;25.92;;;4.90;72.10;;;;;;5049628;28;20036;-63
2022/03/03 02:26:20;;;;;;;46.80;24.20;;;4.90;72.10;;;;;;5049303;28;20033;-63
2022/03/03 02:28:47;;;;;;;42.92;25.67;;;4.90;72.00;;;;;;5014739;28;20029;-63
2022/03/03 02:31:12;;;;;;;39.90;23.45;;;4.90;71.90;;;;;;5026247;28;20111;-63
2022/03/03 02:33:38;;;;;;;42.55;23.20;;;4.90;71.70;;;;;;5030807;28;20121;-63
2022/03/03 02:36:24;;;;;;;38.50;23.73;;;4.90;71.70;;;;;;5042348;28;20082;-64
2022/03/03 02:38:53;;;;;;;45.63;25.02;;;4.90;71.80;;;;;;5046666;28;20029;-63
2022/03/03 02:41:19;;;;;;;37.20;23.50;;;4.90;71.80;;;;;;5049555;28;20041;-65
2022/03/03 02:43:45;;;;;;;42.53;25.08;;;4.90;72.00;;;;;;5030722;28;20478;-63
2022/03/03 02:46:12;;;;;;;40.58;24.10;;;4.90;72.30;;;;;;5041813;28;20033;-63
2022/03/03 02:48:37;;;;;;;46.10;26.15;;;4.90;72.60;;;;;;5048667;28;20025;-63
2022/03/03 02:51:04;;;;;;;43.92;26.63;;;4.90;72.90;;;;;;5049357;28;20033;-63
2022/03/03 02:53:29;;;;;;;44.08;26.38;;;4.80;73.50;;;;;;5048064;28;20024;-64
2022/03/03 02:55:55;;;;;;;39.85;25.75;;;4.80;73.50;;;;;;5050612;28;20466;-64
2022/03/03 02:58:21;;;;;;;41.25;25.05;;;4.70;73.20;;;;;;5049702;28;20112;-63
2022/03/03 03:00:47;;;;;;;41.70;23.15;;;4.70;73.30;;;;;;5050671;28;20040;-63
2022/03/03 03:03:16;;;;;;;39.88;23.00;;;4.70;73.20;;;;;;5040095;28;20049;-64
2022/03/03 03:05:43;;;;;;;38.78;22.67;;;4.70;73.00;;;;;;5046929;28;20030;-63
2022/03/03 03:08:09;;;;;;;40.78;24.13;;;4.70;73.00;;;;;;5048148;28;20033;-62
2022/03/03 03:10:35;;;;;;;41.67;24.17;;;4.70;72.90;;;;;;5053679;28;20039;-63
2022/03/03 03:13:01;;;;;;;43.22;23.90;;;4.70;72.90;;;;;;5047134;28;20040;-63
2022/03/03 03:15:26;;;;;;;38.22;23.77;;;4.70;72.90;;;;;;5033917;28;20116;-63
2022/03/03 03:17:52;;;;;;;39.25;23.48;;;4.70;72.90;;;;;;5038632;28;20048;-62
2022/03/03 03:20:18;;;;;;;41.20;24.05;;;4.70;73.00;;;;;;5018573;28;20025;-63
2022/03/03 03:22:44;;;;;;;41.00;23.45;;;4.70;73.00;;;;;;5048325;28;20055;-62
2022/03/03 03:25:13;;;;;;;40.10;22.73;;;4.60;72.80;;;;;;5053703;28;20107;-63
2022/03/03 03:27:40;;;;;;;42.25;25.00;;;4.60;72.70;;;;;;5051768;28;20120;-62
2022/03/03 03:30:09;;;;;;;43.78;23.60;;;4.70;72.60;;;;;;5053345;28;20036;-62
2022/03/03 03:32:34;;;;;;;39.38;22.30;;;4.60;72.50;;;;;;5051267;28;20036;-62
2022/03/03 03:35:00;;;;;;;36.28;20.50;;;4.60;72.20;;;;;;5053091;28;20673;-62
2022/03/03 03:37:25;;;;;;;35.22;20.10;;;4.70;72.10;;;;;;5052065;28;20063;-62
2022/03/03 03:39:51;;;;;;;34.65;20.23;;;4.60;71.90;;;;;;5053162;28;20028;-63
2022/03/03 03:42:17;;;;;;;31.83;18.90;;;4.60;71.70;;;;;;5051116;28;20120;-63
2022/03/03 03:44:42;;;;;;;30.45;19.00;;;4.60;71.50;;;;;;5052744;28;20079;-63
2022/03/03 03:47:09;;;;;;;31.42;18.92;;;4.60;71.50;;;;;;5051640;28;20055;-63
2022/03/03 03:49:35;;;;;;;35.92;20.20;;;4.60;71.60;;;;;;5052721;28;20120;-63
2022/03/03 03:52:01;;;;;;;32.50;19.88;;;4.60;71.70;;;;;;5045752;28;20113;-62
2022/03/03 03:54:27;;;;;;;35.50;21.33;;;4.50;71.60;;;;;;5033230;28;20554;-63
2022/03/03 03:56:52;;;;;;;37.92;20.10;;;4.50;71.60;;;;;;5036359;28;20492;-63
2022/03/03 03:59:18;;;;;;;34.67;19.92;;;4.50;71.50;;;;;;5033304;28;20068;-63
2022/03/03 04:01:43;;;;;;;34.08;20.27;;;4.50;71.40;;;;;;5037440;28;20134;-63
2022/03/03 04:04:09;;;;;;;32.25;19.27;;;4.50;71.60;;;;;;5052717;28;20355;-62
2022/03/03 04:06:36;;;;;;;31.67;18.63;;;4.50;71.30;;;;;;5051469;28;20108;-63
2022/03/03 04:09:02;;;;;;;31.05;19.88;;;4.50;71.00;;;;;;5052926;28;20049;-63
2022/03/03 04:11:28;;;;;;;30.15;18.48;;;4.50;71.00;;;;;;5051153;28;20060;-63
2022/03/03 04:13:54;;;;;;;32.22;17.30;;;4.40;71.00;;;;;;5051926;28;20051;-63
2022/03/03 04:16:19;;;;;;;31.23;17.83;;;4.40;71.10;;;;;;5051693;28;20487;-65
2022/03/03 04:18:45;;;;;;;30.67;18.67;;;4.40;71.10;;;;;;5045436;28;20021;-64
2022/03/03 04:21:11;;;;;;;31.15;17.80;;;4.40;71.20;;;;;;5052505;28;20064;-63
2022/03/03 04:23:36;;;;;;;38.53;19.27;;;4.30;71.30;;;;;;5050175;28;20513;-64
2022/03/03 04:26:02;;;;;;;44.95;22.63;;;4.30;71.20;;;;;;5052548;28;20112;-62
2022/03/03 04:28:28;;;;;;;37.80;19.98;;;4.30;71.20;;;;;;5050133;28;20107;-63
2022/03/03 04:30:53;;;;;;;32.97;20.17;;;4.30;71.20;;;;;;5046478;28;20025;-63
2022/03/03 04:33:18;;;;;;;53.85;23.35;;;4.20;71.30;;;;;;5045571;28;20032;-63
2022/03/03 04:35:44;;;;;;;34.60;20.60;;;4.20;71.50;;;;;;5052070;28;20056;-63
2022/03/03 04:38:09;;;;;;;34.03;20.73;;;4.10;71.40;;;;;;5050401;28;20527;-64
2022/03/03 04:40:35;;;;;;;31.80;19.33;;;4.20;71.40;;;;;;5051997;28;20444;-64
2022/03/03 04:43:00;;;;;;;31.30;19.48;;;4.10;71.50;;;;;;5049879;28;20036;-64
2022/03/03 04:45:26;;;;;;;30.42;19.35;;;4.10;71.50;;;;;;5051896;28;20112;-63
2022/03/03 04:47:51;;;;;;;32.42;19.88;;;4.00;71.60;;;;;;5049652;28;20033;-63
2022/03/03 04:50:17;;;;;;;33.40;19.67;;;3.90;71.80;;;;;;5050433;28;20396;-62
2022/03/03 04:52:42;;;;;;;30.05;17.65;;;3.80;71.80;;;;;;5042531;28;20036;-63
2022/03/03 04:55:08;;;;;;;28.73;16.75;;;3.80;71.70;;;;;;5051867;28;20029;-63
2022/03/03 04:57:34;;;;;;;30.48;16.65;;;3.70;71.70;;;;;;5050429;28;20484;-62
2022/03/03 05:00:00;;;;;;;28.40;16.67;;;3.70;71.30;;;;;;5051452;28;20036;-63
2022/03/03 05:02:26;;;;;;;28.00;16.75;;;3.60;71.30;;;;;;5041031;28;20114;-62
2022/03/03 05:04:51;;;;;;;26.65;16.27;;;3.50;71.30;;;;;;5041091;28;20412;-63
2022/03/03 05:07:19;;;;;;;25.02;14.93;;;3.40;71.30;;;;;;5050335;28;20436;-63
2022/03/03 05:09:44;;;;;;;28.13;16.33;;;3.40;71.40;;;;;;5051503;28;20121;-63
2022/03/03 05:12:10;;;;;;;25.73;16.70;;;3.30;71.70;;;;;;5050195;28;20067;-62
2022/03/03 05:14:36;;;;;;;25.63;15.68;;;3.20;72.10;;;;;;5051121;28;20472;-63
2022/03/03 05:17:01;;;;;;;27.50;16.38;;;3.20;72.30;;;;;;5046406;28;20038;-63
2022/03/03 05:19:27;;;;;;;28.00;16.00;;;3.20;72.70;;;;;;5051175;28;20472;-63
2022/03/03 05:21:52;;;;;;;28.95;15.50;;;3.10;72.40;;;;;;5049150;28;20044;-63
2022/03/03 05:24:18;;;;;;;27.25;16.08;;;3.20;72.50;;;;;;5032391;28;20029;-63
2022/03/03 05:26:44;;;;;;;29.70;17.45;;;3.10;72.60;;;;;;5050225;28;20377;-63
2022/03/03 05:29:10;;;;;;;28.23;17.27;;;3.10;73.60;;;;;;5051466;28;20527;-63
2022/03/03 05:31:35;;;;;;;28.35;17.33;;;3.00;73.60;;;;;;5049221;28;20029;-64
2022/03/03 05:34:03;;;;;;;30.75;17.50;;;3.00;73.40;;;;;;5051004;28;20109;-64
2022/03/03 05:36:29;;;;;;;28.98;16.23;;;3.00;73.70;;;;;;5049818;28;20086;-63
2022/03/03 05:38:57;;;;;;;28.67;17.15;;;2.90;73.90;;;;;;5051478;28;20054;-63
2022/03/03 05:41:23;;;;;;;31.88;18.50;;;2.80;74.30;;;;;;5050225;28;20045;-63
2022/03/03 05:43:50;;;;;;;29.98;17.23;;;2.90;74.40;;;;;;5051016;28;20029;-63
2022/03/03 05:46:16;;;;;;;28.83;16.40;;;2.90;74.60;;;;;;5036830;28;20033;-63
2022/03/03 05:48:41;;;;;;;30.58;16.17;;;2.90;74.70;;;;;;5032387;28;20104;-63
2022/03/03 05:51:08;;;;;;;28.40;17.23;;;2.90;74.70;;;;;;5051192;28;20560;-63
2022/03/03 05:53:34;;;;;;;33.08;16.35;;;3.00;74.80;;;;;;5047955;28;20029;-63
2022/03/03 05:56:05;;;;;;;28.83;17.80;;;3.00;75.00;;;;;;5050999;28;20031;-63
2022/03/03 05:58:49;;;;;;;30.30;16.30;;;3.00;75.10;;;;;;5049244;28;20033;-63
2022/03/03 06:01:16;;;;;;;32.58;17.98;;;3.00;75.40;;;;;;5050535;28;20099;-63
2022/03/03 06:03:44;;;;;;;30.67;18.92;;;3.00;75.50;;;;;;5044566;28;20087;-63
2022/03/03 06:06:16;;;;;;;28.73;17.23;;;3.00;76.20;;;;;;5061447;28;20093;-63
2022/03/03 06:08:53;;;;;;;26.05;16.80;;;2.90;75.90;;;;;;5049679;28;20021;-63
2022/03/03 06:11:20;;;;;;;27.95;17.38;;;2.90;75.80;;;;;;5049507;28;20036;-64
2022/03/03 06:13:47;;;;;;;31.85;16.73;;;2.90;76.30;;;;;;5033406;28;20475;-63
2022/03/03 06:16:18;;;;;;;30.48;16.98;;;2.90;76.20;;;;;;5036659;28;20033;-63
2022/03/03 06:18:48;;;;;;;33.00;18.92;;;2.80;76.80;;;;;;5050616;28;20037;-63
2022/03/03 06:21:17;;;;;;;39.78;24.17;;;2.70;76.80;;;;;;5050116;28;20064;-63
2022/03/03 06:23:43;;;;;;;60.97;39.20;;;2.70;76.80;;;;;;5049820;28;20044;-63
2022/03/03 06:26:14;;;;;;;69.68;42.08;;;2.60;77.10;;;;;;5050547;28;20021;-63
2022/03/03 06:28:40;;;;;;;55.10;32.92;;;2.50;78.50;;;;;;5050195;28;20033;-63
2022/03/03 06:31:06;;;;;;;50.38;30.23;;;2.40;77.90;;;;;;5050249;28;20482;-63
2022/03/03 06:33:33;;;;;;;45.22;22.50;;;2.40;78.00;;;;;;5032243;28;20497;-63
2022/03/03 06:35:59;;;;;;;40.75;21.85;;;2.30;78.30;;;;;;5049913;28;20033;-63
2022/03/03 06:38:25;;;;;;;39.33;20.80;;;2.30;78.80;;;;;;5029491;28;20518;-64
2022/03/03 06:40:50;;;;;;;37.22;21.05;;;2.20;79.20;;;;;;5034437;28;20045;-63
2022/03/03 06:43:16;;;;;;;37.03;21.73;;;2.20;79.90;;;;;;5049588;28;20029;-63
2022/03/03 06:45:42;;;;;;;31.10;18.27;;;2.10;81.40;;;;;;5054357;28;20060;-63
2022/03/03 06:48:07;;;;;;;34.08;21.25;;;2.10;81.70;;;;;;5052927;28;20134;-63
2022/03/03 06:50:39;;;;;;;32.55;18.50;;;2.10;82.00;;;;;;5050872;28;20025;-65
2022/03/03 06:53:07;;;;;;;38.53;19.35;;;2.00;81.40;;;;;;5046695;28;22389;-63
2022/03/03 06:55:34;;;;;;;40.17;19.50;;;2.00;81.70;;;;;;5056798;28;20400;-63
2022/03/03 06:58:00;;;;;;;35.80;19.35;;;2.00;83.20;;;;;;5047524;28;20037;-63
2022/03/03 07:00:28;;;;;;;36.35;20.60;;;1.90;83.60;;;;;;5044887;28;20055;-63
2022/03/03 07:02:54;;;;;;;35.10;20.95;;;1.80;85.30;;;;;;5051021;28;20132;-63
2022/03/03 07:05:21;;;;;;;36.17;20.65;;;1.70;86.00;;;;;;5052589;28;20075;-63
2022/03/03 07:07:48;;;;;;;34.92;20.23;;;1.70;86.10;;;;;;5051477;28;20744;-63
2022/03/03 07:10:23;;;;;;;38.55;20.85;;;1.60;84.90;;;;;;5051462;28;20064;-64
2022/03/03 07:12:50;;;;;;;;;;;1.70;85.10;;;;;;5035409;28;20091;-64
2022/03/03 07:15:16;;;;;;;35.40;21.15;;;1.70;85.00;;;;;;5039308;28;20280;-64
2022/03/03 07:17:49;;;;;;;42.72;22.48;;;1.70;85.30;;;;;;5044606;28;20040;-64
2022/03/03 07:20:18;;;;;;;48.53;24.75;;;1.60;87.00;;;;;;5051286;28;20843;-65
2022/03/03 07:23:00;;;;;;;50.72;26.75;;;1.50;88.60;;;;;;5040219;28;20868;-65
2022/03/03 07:25:48;;;;;;;49.45;24.92;;;1.30;89.20;;;;;;5043321;28;20420;-64
2022/03/03 07:28:14;;;;;;;52.17;24.30;;;1.10;90.40;;;;;;5044330;28;20033;-64
2022/03/03 07:30:42;;;;;;;52.80;28.27;;;1.00;90.70;;;;;;5047436;28;20500;-65
2022/03/03 07:33:11;;;;;;;55.47;28.27;;;0.90;92.10;;;;;;5039069;28;20057;-65
2022/03/03 07:35:40;;;;;;;57.22;26.88;;;1.00;92.00;;;;;;5051679;28;20029;-65
2022/03/03 07:38:14;;;;;;;57.88;25.88;;;0.90;91.40;;;;;;5042459;28;20038;-65
2022/03/03 07:40:41;;;;;;;49.17;25.80;;;1.00;91.40;;;;;;5046319;28;20507;-65
2022/03/03 07:43:08;;;;;;;62.90;28.23;;;1.10;91.30;;;;;;5050587;28;20033;-65
2022/03/03 07:45:33;;;;;;;55.40;29.42;;;1.10;91.50;;;;;;5052297;28;20040;-65
2022/03/03 07:47:59;;;;;;;55.58;27.63;;;1.10;92.30;;;;;;5049773;28;20047;-65
2022/03/03 07:50:25;;;;;;;57.50;29.17;;;1.20;91.90;;;;;;5043193;28;20489;-65
2022/03/03 07:52:53;;;;;;;54.45;27.30;;;1.20;92.10;;;;;;5049266;28;20522;-65
2022/03/03 07:55:19;;;;;;;47.78;26.13;;;1.30;92.10;;;;;;5052076;28;20037;-65
2022/03/03 07:57:59;;;;;;;55.13;26.95;;;1.40;92.30;;;;;;5039545;28;20048;-65
2022/03/03 08:00:31;;;;;;;52.80;26.40;;;1.50;92.60;;;;;;5051443;28;20040;-65
2022/03/03 08:02:59;;;;;;;52.97;26.85;;;1.50;92.40;;;;;;5039506;28;20073;-65
2022/03/03 08:05:27;;;;;;;55.78;30.15;;;1.60;92.80;;;;;;5051875;28;20044;-65
2022/03/03 08:07:55;;;;;;;55.10;27.42;;;1.50;93.00;;;;;;5051206;28;20598;-65
2022/03/03 08:10:24;;;;;;;58.72;27.88;;;1.60;93.00;;;;;;5040203;28;20033;-65
2022/03/03 08:12:54;;;;;;;57.35;26.73;;;1.50;93.60;;;;;;5051022;28;20023;-65
2022/03/03 08:15:20;;;;;;;56.67;28.13;;;1.50;94.20;;;;;;5051714;28;20033;-65
2022/03/03 08:17:51;;;;;;;52.35;25.10;;;1.50;94.60;;;;;;5049259;28;20029;-64
2022/03/03 08:20:17;;;;;;;46.33;23.92;;;1.50;94.60;;;;;;5051318;28;20037;-65
2022/03/03 08:22:43;;;;;;;50.75;24.77;;;1.40;95.30;;;;;;5057079;28;20037;-64
2022/03/03 08:25:10;;;;;;;60.53;26.02;;;1.30;95.60;;;;;;5056944;28;20036;-65
2022/03/03 08:27:37;;;;;;;52.28;27.67;;;1.30;95.60;;;;;;5052441;28;20025;-65
2022/03/03 08:30:04;;;;;;;59.22;26.38;;;1.20;96.00;;;;;;5039533;28;20033;-65
2022/03/03 08:32:59;;;;;;;58.30;26.73;;;1.30;96.00;;;;;;5045990;28;20033;-65
2022/03/03 08:35:36;;;;;;;58.42;26.58;;;1.40;95.40;;;;;;5027547;28;20124;-64
2022/03/03 08:38:07;;;;;;;48.85;24.30;;;1.40;95.60;;;;;;5043596;28;20033;-64
2022/03/03 08:40:34;;;;;;;48.58;24.17;;;1.50;95.50;;;;;;5047277;28;20021;-64
2022/03/03 08:43:02;;;;;;;49.92;25.20;;;1.60;96.10;;;;;;5047325;28;20045;-64
2022/03/03 08:45:31;;;;;;;51.38;23.98;;;1.60;95.90;;;;;;5050931;28;20105;-64
2022/03/03 08:48:03;;;;;;;50.88;24.10;;;1.60;96.00;;;;;;5052219;28;20064;-64
2022/03/03 08:50:31;;;;;;;52.65;24.00;;;1.60;95.70;;;;;;5036674;28;20031;-64
2022/03/03 08:52:58;;;;;;;52.30;22.58;;;1.70;95.60;;;;;;5037455;28;20029;-64
2022/03/03 08:55:25;;;;;;;56.60;28.23;;;1.60;95.50;;;;;;5049922;28;20040;-64
2022/03/03 08:57:51;;;;;;;56.03;25.35;;;1.70;96.10;;;;;;5025587;28;20033;-64
2022/03/03 09:00:17;;;;;;;50.13;24.90;;;1.60;96.00;;;;;;5048370;28;20034;-63
2022/03/03 09:02:43;;;;;;;52.03;25.73;;;1.70;96.10;;;;;;5050326;28;20839;-64
2022/03/03 09:05:10;;;;;;;52.88;25.05;;;1.70;96.00;;;;;;5050270;28;20041;-64
2022/03/03 09:07:36;;;;;;;54.08;23.90;;;1.70;95.80;;;;;;5047516;28;20029;-64
2022/03/03 09:10:02;;;;;;;50.83;25.10;;;1.80;95.70;;;;;;5046888;28;20033;-64
2022/03/03 09:12:27;;;;;;;44.17;23.20;;;1.90;96.00;;;;;;5053539;28;20038;-64
2022/03/03 09:14:53;;;;;;;50.53;24.98;;;1.90;96.10;;;;;;5056023;28;20041;-64
2022/03/03 09:17:18;;;;;;;46.65;22.80;;;1.90;96.00;;;;;;5046831;28;20025;-64
2022/03/03 09:19:44;;;;;;;45.40;23.98;;;1.80;96.60;;;;;;5056115;28;20036;-63
2022/03/03 09:22:09;;;;;;;47.10;24.15;;;1.70;96.50;;;;;;5053924;28;20103;-64
2022/03/03 09:24:35;;;;;;;45.28;23.17;;;1.70;96.70;;;;;;5051155;28;20025;-64
2022/03/03 09:27:00;;;;;;;50.42;23.63;;;1.70;96.30;;;;;;5048735;28;20029;-63
2022/03/03 09:29:28;;;;;;;45.13;23.90;;;1.90;96.80;;;;;;5052556;28;20029;-63
2022/03/03 09:31:53;;;;;;;45.88;20.83;;;1.90;96.20;;;;;;5036536;28;20037;-65
2022/03/03 09:34:19;;;;;;;41.08;21.73;;;2.00;96.50;;;;;;5048120;28;20035;-64
2022/03/03 09:36:44;;;;;;;39.30;20.63;;;2.00;96.50;;;;;;5060029;28;20033;-63
2022/03/03 09:39:10;;;;;;;40.17;20.80;;;1.90;96.50;;;;;;5056701;28;20024;-65
2022/03/03 09:41:36;;;;;;;40.40;20.80;;;1.90;96.90;;;;;;5054415;28;20088;-64
2022/03/03 09:44:02;;;;;;;41.40;21.50;;;1.90;96.70;;;;;;5054087;28;20056;-64
2022/03/03 09:46:27;;;;;;;47.08;23.52;;;1.80;96.90;;;;;;5035462;28;20029;-65
2022/03/03 09:48:53;;;;;;;41.63;20.88;;;1.80;97.30;;;;;;5052723;28;20450;-64
2022/03/03 09:51:18;;;;;;;45.70;22.13;;;1.70;97.30;;;;;;5062837;28;20025;-64
2022/03/03 09:53:44;;;;;;;43.10;20.70;;;1.70;97.10;;;;;;5026532;28;20029;-64
2022/03/03 09:56:10;;;;;;;40.83;21.45;;;1.80;97.30;;;;;;5033772;28;20028;-64
2022/03/03 09:58:35;;;;;;;47.45;22.67;;;1.80;97.20;;;;;;5048439;28;20095;-64
2022/03/03 10:01:01;;;;;;;42.85;21.52;;;1.70;97.70;;;;;;5032625;28;20029;-64
2022/03/03 10:03:34;;;;;;;44.67;21.02;;;1.70;97.70;;;;;;5047761;28;20532;-64
2022/03/03 10:06:01;;;;;;;38.20;18.10;;;1.70;97.50;;;;;;5048955;28;20112;-64
2022/03/03 10:08:28;;;;;;;36.20;17.40;;;1.90;97.60;;;;;;5044620;28;20064;-64
2022/03/03 10:11:02;;;;;;;31.17;15.50;;;1.80;97.60;;;;;;5049452;28;20029;-64
2022/03/03 10:13:51;;;;;;;31.25;16.17;;;1.90;97.70;;;;;;5063095;28;20102;-64
2022/03/03 10:16:26;;;;;;;37.88;17.77;;;1.90;97.40;;;;;;5038799;28;20029;-64
2022/03/03 10:19:04;;;;;;;34.85;15.52;;;2.00;97.50;;;;;;5063323;28;20059;-63
2022/03/03 10:21:32;;;;;;;34.42;13.82;;;2.10;97.50;;;;;;5036901;28;20056;-63
2022/03/03 10:23:59;;;;;;;32.10;15.07;;;2.20;97.40;;;;;;5061087;28;20033;-65
2022/03/03 10:26:38;;;;;;;30.33;14.10;;;2.20;97.60;;;;;;5037229;28;20039;-65
2022/03/03 10:29:18;;;;;;;28.65;15.10;;;2.30;97.40;;;;;;5064265;28;20171;-64
2022/03/03 10:31:49;;;;;;;30.75;15.07;;;2.60;97.20;;;;;;5047374;28;20025;-64
2022/03/03 10:34:22;;;;;;;30.05;15.30;;;2.60;97.10;;;;;;5065864;28;20036;-64
2022/03/03 10:36:59;;;;;;;33.92;16.48;;;2.70;97.10;;;;;;5048310;28;20362;-63
2022/03/03 10:39:39;;;;;;;32.28;14.65;;;2.70;97.00;;;;;;5050848;28;20036;-64
2022/03/03 10:42:13;;;;;;;26.73;13.35;;;2.70;97.10;;;;;;5021520;28;20496;-64
2022/03/03 10:44:38;;;;;;;29.33;13.57;;;2.70;97.20;;;;;;5045211;28;20033;-64
2022/03/03 10:47:07;;;;;;;27.77;14.10;;;2.80;97.00;;;;;;5031421;28;20033;-65
2022/03/03 10:49:34;;;;;;;29.80;12.80;;;2.80;97.10;;;;;;5048278;28;20523;-64
2022/03/03 10:52:19;;;;;;;26.33;12.73;;;2.90;97.10;;;;;;5052038;28;20100;-64
2022/03/03 10:54:58;;;;;;;25.45;12.65;;;2.90;97.00;;;;;;5047939;28;20044;-64
2022/03/03 10:57:38;;;;;;;24.13;10.68;;;2.90;97.10;;;;;;5051235;28;20044;-64
2022/03/03 11:00:28;;;;;;;26.98;11.82;;;2.80;97.20;;;;;;5057142;28;20041;-64
2022/03/03 11:02:56;;;;;;;28.92;12.98;;;2.90;97.00;;;;;;5050167;28;20057;-64
2022/03/03 11:05:23;;;;;;;27.63;12.02;;;2.90;97.10;;;;;;5057787;28;20085;-64
2022/03/03 11:07:50;;;;;;;26.17;12.18;;;2.90;97.10;;;;;;5051063;28;20511;-63
2022/03/03 11:10:18;;;;;;;27.10;12.50;;;2.90;97.40;;;;;;5038737;28;20026;-63
2022/03/03 11:12:44;;;;;;;27.60;13.35;;;2.90;97.60;;;;;;5049767;28;20036;-63
2022/03/03 11:15:12;;;;;;;23.08;12.38;;;2.80;97.80;;;;;;5057817;28;20074;-63
2022/03/03 11:17:38;;;;;;;22.40;11.20;;;2.70;98.00;;;;;;5051869;28;20029;-62
2022/03/03 11:20:06;;;;;;;22.98;11.55;;;2.60;97.80;;;;;;5052458;28;20032;-63
2022/03/03 11:22:32;;;;;;;23.30;11.35;;;2.60;98.20;;;;;;5051475;28;20043;-64
2022/03/03 11:25:01;;;;;;;24.05;11.75;;;2.70;97.80;;;;;;5053293;28;20415;-64
2022/03/03 11:27:37;;;;;;;21.90;10.40;;;2.70;97.70;;;;;;5049347;28;20032;-63
2022/03/03 11:30:12;;;;;;;22.30;10.57;;;2.80;97.70;;;;;;5066957;28;20036;-63
2022/03/03 11:32:38;;;;;;;28.48;12.25;;;2.80;97.70;;;;;;5045733;28;20025;-63
2022/03/03 11:35:13;;;;;;;20.02;9.93;;;2.80;97.90;;;;;;5055445;28;20087;-62
2022/03/03 11:37:44;;;;;;;21.25;10.13;;;2.90;97.70;;;;;;5040855;28;20029;-63
2022/03/03 11:40:16;;;;;;;23.13;10.50;;;2.90;97.60;;;;;;5049673;28;20047;-63
2022/03/03 11:42:50;;;;;;;24.17;11.73;;;3.00;97.50;;;;;;5051401;28;20102;-62
2022/03/03 11:45:27;;;;;;;23.40;10.43;;;3.20;97.40;;;;;;5046241;28;20020;-62
2022/03/03 11:48:11;;;;;;;21.95;10.23;;;3.20;97.30;;;;;;5045452;28;20041;-62
2022/03/03 11:50:37;;;;;;;17.77;10.13;;;3.30;97.10;;;;;;5055906;28;20020;-61
2022/03/03 11:53:02;;;;;;;22.50;11.52;;;3.20;97.20;;;;;;5046496;28;20514;-61
2022/03/03 11:56:07;;;;;;;22.10;11.30;;;3.20;97.20;;;;;;5052932;28;20040;-61
2022/03/03 11:58:38;;;;;;;20.05;10.68;;;3.20;97.20;;;;;;4969671;28;20415;-63
2022/03/03 12:01:15;;;;;;;20.67;9.75;;;3.30;97.10;;;;;;4968373;28;20035;-64
2022/03/03 12:04:03;;;;;;;17.33;8.98;;;3.30;97.10;;;;;;5005023;28;20068;-62
2022/03/03 12:06:37;;;;;;;16.27;8.40;;;3.30;97.00;;;;;;5039767;28;20061;-63
2022/03/03 12:09:16;;;;;;;19.17;9.20;;;3.30;97.00;;;;;;5038014;28;20021;-62
2022/03/03 12:11:42;;;;;;;22.92;9.30;;;3.30;97.00;;;;;;5054091;28;20043;-63
2022/03/03 12:14:32;;;;;;;21.05;9.68;;;3.30;97.10;;;;;;5045280;28;20497;-62
2022/03/03 12:17:39;;;;;;;20.08;10.68;;;3.30;97.00;;;;;;5043778;28;20032;-62
2022/03/03 12:20:23;;;;;;;24.73;10.90;;;3.30;96.90;;;;;;5046647;28;20037;-63
2022/03/03 12:23:13;;;;;;;16.50;9.25;;;3.40;96.90;;;;;;5046349;28;20038;-63
2022/03/03 12:25:47;;;;;;;21.35;9.48;;;3.40;96.80;;;;;;5046507;28;20021;-63
2022/03/03 12:28:18;;;;;;;20.05;8.50;;;3.50;96.70;;;;;;5047349;28;20511;-63
2022/03/03 12:30:45;;;;;;;19.48;9.80;;;3.60;96.70;;;;;;5041700;28;20033;-63
2022/03/03 12:33:22;;;;;;;20.27;9.75;;;3.60;96.60;;;;;;5045843;28;20108;-63
2022/03/03 12:35:49;;;;;;;17.33;8.55;;;3.70;96.60;;;;;;5030405;28;20054;-63
2022/03/03 12:38:15;;;;;;;16.27;8.18;;;3.60;96.40;;;;;;5047473;28;20381;-63
2022/03/03 12:40:41;;;;;;;19.25;8.85;;;3.70;96.40;;;;;;5032708;28;20028;-63
2022/03/03 12:43:16;;;;;;;18.25;9.85;;;3.80;96.30;;;;;;5036775;28;20085;-63